Wounded Knee, SD (57794)

1:35 PM MDT on July 07, 2015 (GMT -0600)
Pine Ridge | | Change Station
CLOSE
Current Station
Airport
Location: Pine Ridge,
Elevation: 3330 ft
Nearby Weather Stations

Elev 3330 ft 43.02 °N, 102.52 °W | Updated 43 minutes ago

Overcast
Overcast
69 °F
Feels Like 69 °F
N
13
Wind Variable Wind from South

Today
High -- | Low -- °F
--% Chance of Precip.
Yesterday
High -- | Low -- °F
Precip. -- in
5:17 AM 8:31 PM
Waning Gibbous, 62% visible
Pressure 30.07 in
Visibility 6.0 miles
Clouds Few 3900 ft
Overcast 6000 ft
Dew Point 54 °F
Humidity 58%
Rainfall 0.00 in
Snow Depth Not available.
UV 4 out of 12
Pollen 4.60 out of 12
Air Quality Not available.
Flu Activity Not available.
METAR KIEN 071852Z AUTO 19011KT 6SM HZ FEW039 OVC060 21/12 A3013 RMK AO2 SLP182 T02060122

More Conditions Fewer Conditions

Pressure 30.07 in
Visibility 6.0 miles
Clouds Few 3900 ft
Overcast 6000 ft
Dew Point 54 °F
Humidity 58%
Rainfall 0.00 in
Snow Depth Not available.
UV 4 out of 12
Pollen 4.60 out of 12
Air Quality Not available.
Flu Activity Not available.
METAR KIEN 071852Z AUTO 19011KT 6SM HZ FEW039 OVC060 21/12 A3013 RMK AO2 SLP182 T02060122

More Conditions Fewer Conditions

10-Day Weather Forecast

×

Almanac

Astronomy

Jul. 07, 2015 Rise Set
Actual Time
Civil Twilight
Nautical Twilight
Astronomical Twilight
Moon
Length of Visible Light
Length of Day
Tomorrow will be .
, % of the Moon is Illuminated

Today's Extremes

State Highs State Lows

Community

WunderPhotos

Upload Photos

1,835,880 photos uploaded!

WunderBlogs® & News

Nearby

Air Quality

  Air Quality AQ Index Pollutant
Not available.

Snow Depth

Station Depth Elevation

Earthquake Activity

City Distance Mag. Time & Date
Minimum magnitude displayed is 2.5.

Coastal Water Temperatures

Place Temperature

Stations

Nearby Weather Stations

Station Location Temp. Windchill Dew Point Humidity Wind Precip. Elev Updated Type